sensor_id;sensor_type;location;lat;lon;timestamp;P1;durP1;ratioP1;P2;durP2;ratioP2
6689;SDS011;3382;51.576;8.076;2022-11-20T00:00:43;29.77;;;20.80;;
6689;SDS011;3382;51.576;8.076;2022-11-20T00:03:09;55.37;;;31.23;;
6689;SDS011;3382;51.576;8.076;2022-11-20T00:05:34;30.50;;;18.83;;
6689;SDS011;3382;51.576;8.076;2022-11-20T00:08:00;27.67;;;18.87;;
6689;SDS011;3382;51.576;8.076;2022-11-20T00:10:26;32.33;;;20.87;;
6689;SDS011;3382;51.576;8.076;2022-11-20T00:12:52;32.47;;;20.77;;
6689;SDS011;3382;51.576;8.076;2022-11-20T00:15:17;33.23;;;22.53;;
6689;SDS011;3382;51.576;8.076;2022-11-20T00:17:43;36.30;;;22.83;;
6689;SDS011;3382;51.576;8.076;2022-11-20T00:20:09;29.03;;;20.43;;
6689;SDS011;3382;51.576;8.076;2022-11-20T00:22:35;33.57;;;22.43;;
6689;SDS011;3382;51.576;8.076;2022-11-20T00:25:00;33.93;;;20.57;;
6689;SDS011;3382;51.576;8.076;2022-11-20T00:27:26;28.73;;;20.63;;
6689;SDS011;3382;51.576;8.076;2022-11-20T00:29:52;31.00;;;20.73;;
6689;SDS011;3382;51.576;8.076;2022-11-20T00:32:17;33.67;;;23.13;;
6689;SDS011;3382;51.576;8.076;2022-11-20T00:34:43;35.90;;;22.97;;
6689;SDS011;3382;51.576;8.076;2022-11-20T00:37:08;37.20;;;24.43;;
6689;SDS011;3382;51.576;8.076;2022-11-20T00:39:34;35.03;;;23.10;;
6689;SDS011;3382;51.576;8.076;2022-11-20T00:41:59;32.63;;;21.53;;
6689;SDS011;3382;51.576;8.076;2022-11-20T00:44:25;31.50;;;20.93;;
6689;SDS011;3382;51.576;8.076;2022-11-20T00:46:50;28.67;;;19.50;;
6689;SDS011;3382;51.576;8.076;2022-11-20T00:49:16;25.97;;;18.13;;
6689;SDS011;3382;51.576;8.076;2022-11-20T00:51:42;27.43;;;18.00;;
6689;SDS011;3382;51.576;8.076;2022-11-20T00:54:07;26.77;;;16.20;;
6689;SDS011;3382;51.576;8.076;2022-11-20T00:56:33;23.87;;;16.93;;
6689;SDS011;3382;51.576;8.076;2022-11-20T00:58:59;21.77;;;16.90;;
6689;SDS011;3382;51.576;8.076;2022-11-20T01:01:25;21.50;;;15.87;;
6689;SDS011;3382;51.576;8.076;2022-11-20T01:03:52;22.37;;;16.83;;
6689;SDS011;3382;51.576;8.076;2022-11-20T01:06:23;21.23;;;16.00;;
6689;SDS011;3382;51.576;8.076;2022-11-20T01:08:49;24.13;;;16.57;;
6689;SDS011;3382;51.576;8.076;2022-11-20T01:11:18;20.87;;;14.93;;
6689;SDS011;3382;51.576;8.076;2022-11-20T01:13:46;24.13;;;16.03;;
6689;SDS011;3382;51.576;8.076;2022-11-20T01:16:14;22.63;;;16.10;;
6689;SDS011;3382;51.576;8.076;2022-11-20T01:18:43;27.70;;;18.30;;
6689;SDS011;3382;51.576;8.076;2022-11-20T01:21:14;22.63;;;17.17;;
6689;SDS011;3382;51.576;8.076;2022-11-20T01:23:42;21.50;;;16.90;;
6689;SDS011;3382;51.576;8.076;2022-11-20T01:26:15;22.20;;;16.60;;
6689;SDS011;3382;51.576;8.076;2022-11-20T01:28:42;20.87;;;14.93;;
6689;SDS011;3382;51.576;8.076;2022-11-20T01:33:40;22.50;;;16.10;;
6689;SDS011;3382;51.576;8.076;2022-11-20T01:36:07;22.23;;;15.90;;
6689;SDS011;3382;51.576;8.076;2022-11-20T01:38:33;26.10;;;16.97;;
6689;SDS011;3382;51.576;8.076;2022-11-20T01:40:59;22.97;;;16.17;;
6689;SDS011;3382;51.576;8.076;2022-11-20T01:43:25;34.83;;;16.83;;
6689;SDS011;3382;51.576;8.076;2022-11-20T01:51:26;22.97;;;14.70;;
6689;SDS011;3382;51.576;8.076;2022-11-20T01:53:59;23.17;;;15.10;;
6689;SDS011;3382;51.576;8.076;2022-11-20T01:56:27;22.93;;;15.87;;
6689;SDS011;3382;51.576;8.076;2022-11-20T01:58:56;20.87;;;14.90;;
6689;SDS011;3382;51.576;8.076;2022-11-20T02:01:25;22.13;;;15.23;;
6689;SDS011;3382;51.576;8.076;2022-11-20T02:03:51;23.70;;;15.57;;
6689;SDS011;3382;51.576;8.076;2022-11-20T02:06:25;20.87;;;15.43;;
6689;SDS011;3382;51.576;8.076;2022-11-20T02:08:57;22.63;;;15.10;;
6689;SDS011;3382;51.576;8.076;2022-11-20T02:11:23;25.20;;;16.07;;
6689;SDS011;3382;51.576;8.076;2022-11-20T02:13:49;24.23;;;16.13;;
6689;SDS011;3382;51.576;8.076;2022-11-20T02:16:22;22.57;;;16.03;;
6689;SDS011;3382;51.576;8.076;2022-11-20T02:18:50;22.13;;;16.70;;
6689;SDS011;3382;51.576;8.076;2022-11-20T02:26:44;24.00;;;16.03;;
6689;SDS011;3382;51.576;8.076;2022-11-20T02:29:18;24.20;;;16.43;;
6689;SDS011;3382;51.576;8.076;2022-11-20T02:31:49;24.80;;;16.60;;
6689;SDS011;3382;51.576;8.076;2022-11-20T02:34:16;26.07;;;17.60;;
6689;SDS011;3382;51.576;8.076;2022-11-20T02:36:42;25.73;;;17.10;;
6689;SDS011;3382;51.576;8.076;2022-11-20T02:39:08;24.73;;;16.77;;
6689;SDS011;3382;51.576;8.076;2022-11-20T02:41:37;20.03;;;14.93;;
6689;SDS011;3382;51.576;8.076;2022-11-20T02:44:03;23.17;;;16.43;;
6689;SDS011;3382;51.576;8.076;2022-11-20T02:46:30;23.23;;;15.90;;
6689;SDS011;3382;51.576;8.076;2022-11-20T02:48:56;22.63;;;16.63;;
6689;SDS011;3382;51.576;8.076;2022-11-20T02:51:22;23.40;;;15.87;;
6689;SDS011;3382;51.576;8.076;2022-11-20T02:53:48;23.90;;;16.37;;
6689;SDS011;3382;51.576;8.076;2022-11-20T02:56:13;22.23;;;16.40;;
6689;SDS011;3382;51.576;8.076;2022-11-20T02:58:40;21.07;;;15.33;;
6689;SDS011;3382;51.576;8.076;2022-11-20T03:01:05;20.87;;;15.40;;
6689;SDS011;3382;51.576;8.076;2022-11-20T03:03:31;24.17;;;14.73;;
6689;SDS011;3382;51.576;8.076;2022-11-20T03:05:58;19.37;;;13.50;;
6689;SDS011;3382;51.576;8.076;2022-11-20T03:08:24;18.23;;;12.57;;
6689;SDS011;3382;51.576;8.076;2022-11-20T03:10:51;14.83;;;11.67;;
6689;SDS011;3382;51.576;8.076;2022-11-20T03:13:16;13.07;;;10.27;;
6689;SDS011;3382;51.576;8.076;2022-11-20T03:15:42;13.30;;;9.43;;
6689;SDS011;3382;51.576;8.076;2022-11-20T03:18:07;13.63;;;9.80;;
6689;SDS011;3382;51.576;8.076;2022-11-20T03:20:33;11.73;;;9.27;;
6689;SDS011;3382;51.576;8.076;2022-11-20T03:22:59;11.87;;;9.03;;
6689;SDS011;3382;51.576;8.076;2022-11-20T03:25:27;13.83;;;8.97;;
6689;SDS011;3382;51.576;8.076;2022-11-20T03:27:54;14.23;;;9.53;;
6689;SDS011;3382;51.576;8.076;2022-11-20T03:30:19;11.37;;;8.50;;
6689;SDS011;3382;51.576;8.076;2022-11-20T03:32:45;11.03;;;8.57;;
6689;SDS011;3382;51.576;8.076;2022-11-20T03:35:11;11.73;;;8.73;;
6689;SDS011;3382;51.576;8.076;2022-11-20T03:37:36;12.90;;;8.90;;
6689;SDS011;3382;51.576;8.076;2022-11-20T03:40:03;10.50;;;8.30;;
6689;SDS011;3382;51.576;8.076;2022-11-20T03:42:29;12.00;;;9.33;;
6689;SDS011;3382;51.576;8.076;2022-11-20T03:45:13;12.40;;;9.33;;
6689;SDS011;3382;51.576;8.076;2022-11-20T03:47:43;12.27;;;8.80;;
6689;SDS011;3382;51.576;8.076;2022-11-20T03:50:10;13.37;;;9.20;;
6689;SDS011;3382;51.576;8.076;2022-11-20T03:52:38;13.37;;;9.47;;
6689;SDS011;3382;51.576;8.076;2022-11-20T03:55:04;12.57;;;9.57;;
6689;SDS011;3382;51.576;8.076;2022-11-20T03:57:30;13.03;;;9.17;;
6689;SDS011;3382;51.576;8.076;2022-11-20T03:59:55;13.67;;;9.40;;
6689;SDS011;3382;51.576;8.076;2022-11-20T04:02:21;11.97;;;8.93;;
6689;SDS011;3382;51.576;8.076;2022-11-20T04:04:47;12.53;;;9.27;;
6689;SDS011;3382;51.576;8.076;2022-11-20T04:07:12;12.23;;;9.30;;
6689;SDS011;3382;51.576;8.076;2022-11-20T04:09:38;13.43;;;9.73;;
6689;SDS011;3382;51.576;8.076;2022-11-20T04:12:04;12.97;;;9.17;;
6689;SDS011;3382;51.576;8.076;2022-11-20T04:14:29;13.63;;;9.60;;
6689;SDS011;3382;51.576;8.076;2022-11-20T04:16:55;11.73;;;9.33;;
6689;SDS011;3382;51.576;8.076;2022-11-20T04:19:20;12.67;;;9.40;;
6689;SDS011;3382;51.576;8.076;2022-11-20T04:21:46;14.57;;;9.60;;
6689;SDS011;3382;51.576;8.076;2022-11-20T04:24:12;15.20;;;10.00;;
6689;SDS011;3382;51.576;8.076;2022-11-20T04:26:37;13.33;;;9.70;;
6689;SDS011;3382;51.576;8.076;2022-11-20T04:29:03;12.23;;;9.23;;
6689;SDS011;3382;51.576;8.076;2022-11-20T04:31:30;12.70;;;9.13;;
6689;SDS011;3382;51.576;8.076;2022-11-20T04:34:02;14.20;;;9.60;;
6689;SDS011;3382;51.576;8.076;2022-11-20T04:36:30;12.60;;;8.80;;
6689;SDS011;3382;51.576;8.076;2022-11-20T04:39:00;12.87;;;9.77;;
6689;SDS011;3382;51.576;8.076;2022-11-20T04:41:29;14.00;;;9.50;;
6689;SDS011;3382;51.576;8.076;2022-11-20T04:43:58;15.87;;;9.63;;
6689;SDS011;3382;51.576;8.076;2022-11-20T04:46:27;12.97;;;9.47;;
6689;SDS011;3382;51.576;8.076;2022-11-20T04:48:54;12.43;;;9.43;;
6689;SDS011;3382;51.576;8.076;2022-11-20T04:51:20;14.27;;;9.97;;
6689;SDS011;3382;51.576;8.076;2022-11-20T04:53:46;13.23;;;9.10;;
6689;SDS011;3382;51.576;8.076;2022-11-20T04:56:12;13.13;;;9.33;;
6689;SDS011;3382;51.576;8.076;2022-11-20T04:58:38;12.27;;;8.73;;
6689;SDS011;3382;51.576;8.076;2022-11-20T05:01:10;12.53;;;8.53;;
6689;SDS011;3382;51.576;8.076;2022-11-20T05:03:41;12.90;;;9.00;;
6689;SDS011;3382;51.576;8.076;2022-11-20T05:06:08;14.50;;;9.57;;
6689;SDS011;3382;51.576;8.076;2022-11-20T05:08:35;12.70;;;8.97;;
6689;SDS011;3382;51.576;8.076;2022-11-20T05:11:02;12.30;;;8.97;;
6689;SDS011;3382;51.576;8.076;2022-11-20T05:13:28;12.10;;;9.17;;
6689;SDS011;3382;51.576;8.076;2022-11-20T05:15:54;13.53;;;9.37;;
6689;SDS011;3382;51.576;8.076;2022-11-20T05:18:20;13.80;;;8.90;;
6689;SDS011;3382;51.576;8.076;2022-11-20T05:20:45;13.40;;;9.50;;
6689;SDS011;3382;51.576;8.076;2022-11-20T05:23:11;12.27;;;8.90;;
6689;SDS011;3382;51.576;8.076;2022-11-20T05:25:37;14.93;;;9.77;;
6689;SDS011;3382;51.576;8.076;2022-11-20T05:28:03;13.47;;;9.20;;
6689;SDS011;3382;51.576;8.076;2022-11-20T05:30:28;12.17;;;8.97;;
6689;SDS011;3382;51.576;8.076;2022-11-20T05:32:54;15.27;;;9.63;;
6689;SDS011;3382;51.576;8.076;2022-11-20T05:35:19;11.97;;;8.67;;
6689;SDS011;3382;51.576;8.076;2022-11-20T05:37:45;14.20;;;9.60;;
6689;SDS011;3382;51.576;8.076;2022-11-20T05:40:10;13.53;;;9.63;;
6689;SDS011;3382;51.576;8.076;2022-11-20T05:42:36;13.37;;;9.37;;
6689;SDS011;3382;51.576;8.076;2022-11-20T05:45:03;15.17;;;9.43;;
6689;SDS011;3382;51.576;8.076;2022-11-20T05:47:31;14.50;;;9.80;;
6689;SDS011;3382;51.576;8.076;2022-11-20T05:49:58;18.50;;;10.27;;
6689;SDS011;3382;51.576;8.076;2022-11-20T05:52:24;17.03;;;9.70;;
6689;SDS011;3382;51.576;8.076;2022-11-20T05:54:53;14.83;;;9.30;;
6689;SDS011;3382;51.576;8.076;2022-11-20T05:57:18;15.07;;;10.00;;
6689;SDS011;3382;51.576;8.076;2022-11-20T05:59:44;15.27;;;10.03;;
6689;SDS011;3382;51.576;8.076;2022-11-20T06:02:09;16.47;;;9.97;;
6689;SDS011;3382;51.576;8.076;2022-11-20T06:04:35;20.00;;;13.67;;
6689;SDS011;3382;51.576;8.076;2022-11-20T06:07:00;16.83;;;10.80;;
6689;SDS011;3382;51.576;8.076;2022-11-20T06:09:26;13.50;;;9.53;;
6689;SDS011;3382;51.576;8.076;2022-11-20T06:11:52;15.30;;;9.90;;
6689;SDS011;3382;51.576;8.076;2022-11-20T06:14:17;16.07;;;9.90;;
6689;SDS011;3382;51.576;8.076;2022-11-20T06:16:43;15.10;;;9.67;;
6689;SDS011;3382;51.576;8.076;2022-11-20T06:19:10;15.97;;;9.73;;
6689;SDS011;3382;51.576;8.076;2022-11-20T06:21:35;16.13;;;9.70;;
6689;SDS011;3382;51.576;8.076;2022-11-20T06:24:01;17.73;;;10.47;;
6689;SDS011;3382;51.576;8.076;2022-11-20T06:26:27;15.87;;;9.93;;
6689;SDS011;3382;51.576;8.076;2022-11-20T06:28:52;15.50;;;10.10;;
6689;SDS011;3382;51.576;8.076;2022-11-20T06:31:21;17.27;;;11.33;;
6689;SDS011;3382;51.576;8.076;2022-11-20T06:33:48;17.00;;;10.73;;
6689;SDS011;3382;51.576;8.076;2022-11-20T06:36:15;14.77;;;9.63;;
6689;SDS011;3382;51.576;8.076;2022-11-20T06:38:42;18.30;;;11.00;;
6689;SDS011;3382;51.576;8.076;2022-11-20T06:41:15;18.07;;;10.90;;
6689;SDS011;3382;51.576;8.076;2022-11-20T06:43:42;17.67;;;11.37;;
6689;SDS011;3382;51.576;8.076;2022-11-20T06:46:09;14.50;;;10.23;;
6689;SDS011;3382;51.576;8.076;2022-11-20T06:48:36;14.90;;;10.00;;
6689;SDS011;3382;51.576;8.076;2022-11-20T06:51:05;16.27;;;10.03;;
6689;SDS011;3382;51.576;8.076;2022-11-20T06:53:32;16.87;;;10.17;;
6689;SDS011;3382;51.576;8.076;2022-11-20T06:55:58;17.37;;;10.67;;
6689;SDS011;3382;51.576;8.076;2022-11-20T06:58:26;15.27;;;9.73;;
6689;SDS011;3382;51.576;8.076;2022-11-20T07:00:52;16.57;;;9.93;;
6689;SDS011;3382;51.576;8.076;2022-11-20T07:03:18;16.80;;;10.70;;
6689;SDS011;3382;51.576;8.076;2022-11-20T07:05:44;3.90;;;3.40;;
6689;SDS011;3382;51.576;8.076;2022-11-20T07:08:11;11.17;;;7.57;;
6689;SDS011;3382;51.576;8.076;2022-11-20T07:10:37;17.07;;;9.50;;
6689;SDS011;3382;51.576;8.076;2022-11-20T07:13:02;16.93;;;10.07;;
6689;SDS011;3382;51.576;8.076;2022-11-20T07:15:28;18.67;;;8.77;;
6689;SDS011;3382;51.576;8.076;2022-11-20T07:17:54;15.03;;;8.30;;
6689;SDS011;3382;51.576;8.076;2022-11-20T07:20:20;15.73;;;9.50;;
6689;SDS011;3382;51.576;8.076;2022-11-20T07:22:46;13.63;;;9.03;;
6689;SDS011;3382;51.576;8.076;2022-11-20T07:25:11;14.00;;;9.07;;
6689;SDS011;3382;51.576;8.076;2022-11-20T07:27:37;13.13;;;9.00;;
6689;SDS011;3382;51.576;8.076;2022-11-20T07:30:03;14.37;;;8.77;;
6689;SDS011;3382;51.576;8.076;2022-11-20T07:32:29;14.27;;;8.63;;
6689;SDS011;3382;51.576;8.076;2022-11-20T07:34:55;15.57;;;9.63;;
6689;SDS011;3382;51.576;8.076;2022-11-20T07:37:20;14.97;;;9.13;;
6689;SDS011;3382;51.576;8.076;2022-11-20T07:39:46;13.93;;;8.93;;
6689;SDS011;3382;51.576;8.076;2022-11-20T07:42:12;16.47;;;10.07;;
6689;SDS011;3382;51.576;8.076;2022-11-20T07:44:38;12.17;;;8.57;;
6689;SDS011;3382;51.576;8.076;2022-11-20T07:47:04;17.10;;;10.30;;
6689;SDS011;3382;51.576;8.076;2022-11-20T07:49:29;15.67;;;9.57;;
6689;SDS011;3382;51.576;8.076;2022-11-20T07:51:55;20.33;;;10.47;;
6689;SDS011;3382;51.576;8.076;2022-11-20T07:54:21;13.60;;;9.57;;
6689;SDS011;3382;51.576;8.076;2022-11-20T07:56:48;18.50;;;10.00;;
6689;SDS011;3382;51.576;8.076;2022-11-20T07:59:13;18.03;;;10.23;;
6689;SDS011;3382;51.576;8.076;2022-11-20T08:01:40;15.17;;;9.97;;
6689;SDS011;3382;51.576;8.076;2022-11-20T08:04:06;17.67;;;10.20;;
6689;SDS011;3382;51.576;8.076;2022-11-20T08:06:32;17.50;;;10.80;;
6689;SDS011;3382;51.576;8.076;2022-11-20T08:08:57;18.97;;;11.40;;
6689;SDS011;3382;51.576;8.076;2022-11-20T08:11:23;17.97;;;10.73;;
6689;SDS011;3382;51.576;8.076;2022-11-20T08:14:08;19.43;;;11.67;;
6689;SDS011;3382;51.576;8.076;2022-11-20T08:16:41;18.97;;;12.10;;
6689;SDS011;3382;51.576;8.076;2022-11-20T08:19:11;16.47;;;11.33;;
6689;SDS011;3382;51.576;8.076;2022-11-20T08:21:37;23.20;;;12.23;;
6689;SDS011;3382;51.576;8.076;2022-11-20T08:24:03;17.37;;;11.87;;
6689;SDS011;3382;51.576;8.076;2022-11-20T08:26:29;18.93;;;12.37;;
6689;SDS011;3382;51.576;8.076;2022-11-20T08:28:56;22.17;;;12.53;;
6689;SDS011;3382;51.576;8.076;2022-11-20T08:31:22;19.67;;;11.77;;
6689;SDS011;3382;51.576;8.076;2022-11-20T08:33:49;20.70;;;12.07;;
6689;SDS011;3382;51.576;8.076;2022-11-20T08:36:15;18.47;;;12.00;;
6689;SDS011;3382;51.576;8.076;2022-11-20T08:38:41;17.10;;;12.13;;
6689;SDS011;3382;51.576;8.076;2022-11-20T08:41:07;22.57;;;12.50;;
6689;SDS011;3382;51.576;8.076;2022-11-20T08:43:59;20.07;;;13.50;;
6689;SDS011;3382;51.576;8.076;2022-11-20T08:46:28;19.03;;;13.10;;
6689;SDS011;3382;51.576;8.076;2022-11-20T08:49:06;16.57;;;12.17;;
6689;SDS011;3382;51.576;8.076;2022-11-20T08:51:34;8.17;;;4.80;;
6689;SDS011;3382;51.576;8.076;2022-11-20T08:54:00;18.53;;;12.40;;
6689;SDS011;3382;51.576;8.076;2022-11-20T08:56:26;15.37;;;11.13;;
6689;SDS011;3382;51.576;8.076;2022-11-20T08:58:52;15.67;;;11.37;;
6689;SDS011;3382;51.576;8.076;2022-11-20T09:01:18;15.90;;;10.70;;
6689;SDS011;3382;51.576;8.076;2022-11-20T09:03:45;18.57;;;11.93;;
6689;SDS011;3382;51.576;8.076;2022-11-20T09:06:10;18.03;;;11.37;;
6689;SDS011;3382;51.576;8.076;2022-11-20T09:08:36;17.20;;;11.50;;
6689;SDS011;3382;51.576;8.076;2022-11-20T09:11:02;14.83;;;10.40;;
6689;SDS011;3382;51.576;8.076;2022-11-20T09:13:29;13.50;;;10.30;;
6689;SDS011;3382;51.576;8.076;2022-11-20T09:15:55;13.57;;;10.30;;
6689;SDS011;3382;51.576;8.076;2022-11-20T09:18:23;17.70;;;11.17;;
6689;SDS011;3382;51.576;8.076;2022-11-20T09:20:55;15.53;;;10.23;;
6689;SDS011;3382;51.576;8.076;2022-11-20T09:23:25;14.93;;;11.43;;
6689;SDS011;3382;51.576;8.076;2022-11-20T09:25:51;13.53;;;10.43;;
6689;SDS011;3382;51.576;8.076;2022-11-20T09:28:17;16.40;;;10.57;;
6689;SDS011;3382;51.576;8.076;2022-11-20T09:30:43;16.80;;;11.30;;
6689;SDS011;3382;51.576;8.076;2022-11-20T09:33:09;16.20;;;11.40;;
6689;SDS011;3382;51.576;8.076;2022-11-20T09:35:35;16.03;;;11.57;;
6689;SDS011;3382;51.576;8.076;2022-11-20T09:38:04;15.20;;;10.80;;
6689;SDS011;3382;51.576;8.076;2022-11-20T09:40:31;15.27;;;10.93;;
6689;SDS011;3382;51.576;8.076;2022-11-20T09:43:01;16.93;;;11.13;;
6689;SDS011;3382;51.576;8.076;2022-11-20T09:45:39;14.73;;;10.57;;
6689;SDS011;3382;51.576;8.076;2022-11-20T09:48:45;14.60;;;10.50;;
6689;SDS011;3382;51.576;8.076;2022-11-20T09:53:47;16.83;;;11.07;;
6689;SDS011;3382;51.576;8.076;2022-11-20T09:56:18;15.10;;;11.70;;
6689;SDS011;3382;51.576;8.076;2022-11-20T09:58:47;16.47;;;11.73;;
6689;SDS011;3382;51.576;8.076;2022-11-20T10:01:16;16.57;;;11.47;;
6689;SDS011;3382;51.576;8.076;2022-11-20T10:06:36;15.37;;;12.10;;
6689;SDS011;3382;51.576;8.076;2022-11-20T10:20:17;15.13;;;11.40;;
6689;SDS011;3382;51.576;8.076;2022-11-20T10:25:55;18.90;;;12.23;;
6689;SDS011;3382;51.576;8.076;2022-11-20T10:28:30;18.23;;;12.30;;
6689;SDS011;3382;51.576;8.076;2022-11-20T10:31:34;17.77;;;12.40;;
6689;SDS011;3382;51.576;8.076;2022-11-20T10:34:06;14.57;;;10.80;;
6689;SDS011;3382;51.576;8.076;2022-11-20T10:36:46;16.37;;;8.80;;
6689;SDS011;3382;51.576;8.076;2022-11-20T10:42:40;12.53;;;9.40;;
6689;SDS011;3382;51.576;8.076;2022-11-20T10:45:21;13.73;;;11.33;;
6689;SDS011;3382;51.576;8.076;2022-11-20T10:47:50;14.30;;;10.87;;
6689;SDS011;3382;51.576;8.076;2022-11-20T10:50:19;15.83;;;11.50;;
6689;SDS011;3382;51.576;8.076;2022-11-20T11:01:05;13.53;;;8.90;;
6689;SDS011;3382;51.576;8.076;2022-11-20T11:03:39;14.50;;;10.57;;
6689;SDS011;3382;51.576;8.076;2022-11-20T11:09:08;12.53;;;8.47;;
6689;SDS011;3382;51.576;8.076;2022-11-20T11:11:38;14.70;;;8.83;;
6689;SDS011;3382;51.576;8.076;2022-11-20T11:14:12;9.57;;;7.87;;
6689;SDS011;3382;51.576;8.076;2022-11-20T11:16:54;11.43;;;9.07;;
6689;SDS011;3382;51.576;8.076;2022-11-20T11:19:21;12.50;;;9.23;;
6689;SDS011;3382;51.576;8.076;2022-11-20T11:21:49;12.40;;;8.63;;
6689;SDS011;3382;51.576;8.076;2022-11-20T11:24:21;10.90;;;7.90;;
6689;SDS011;3382;51.576;8.076;2022-11-20T11:26:57;10.50;;;8.23;;
6689;SDS011;3382;51.576;8.076;2022-11-20T11:29:29;15.00;;;7.03;;
6689;SDS011;3382;51.576;8.076;2022-11-20T11:32:29;9.87;;;7.30;;
6689;SDS011;3382;51.576;8.076;2022-11-20T11:35:00;11.67;;;7.80;;
6689;SDS011;3382;51.576;8.076;2022-11-20T11:37:38;9.80;;;7.57;;
6689;SDS011;3382;51.576;8.076;2022-11-20T11:40:05;9.73;;;7.77;;
6689;SDS011;3382;51.576;8.076;2022-11-20T11:42:39;14.07;;;8.30;;
6689;SDS011;3382;51.576;8.076;2022-11-20T11:45:15;10.70;;;8.40;;
6689;SDS011;3382;51.576;8.076;2022-11-20T11:47:45;12.63;;;8.70;;
6689;SDS011;3382;51.576;8.076;2022-11-20T11:50:23;11.60;;;8.87;;
6689;SDS011;3382;51.576;8.076;2022-11-20T11:58:46;12.73;;;9.20;;
6689;SDS011;3382;51.576;8.076;2022-11-20T12:04:34;5.40;;;3.50;;
6689;SDS011;3382;51.576;8.076;2022-11-20T12:06:44;12.30;;;4.50;;
6689;SDS011;3382;51.576;8.076;2022-11-20T12:09:13;12.23;;;8.10;;
6689;SDS011;3382;51.576;8.076;2022-11-20T12:11:43;11.87;;;9.13;;
6689;SDS011;3382;51.576;8.076;2022-11-20T12:14:14;12.47;;;8.80;;
6689;SDS011;3382;51.576;8.076;2022-11-20T12:17:02;12.63;;;9.50;;
6689;SDS011;3382;51.576;8.076;2022-11-20T12:19:29;13.43;;;10.00;;
6689;SDS011;3382;51.576;8.076;2022-11-20T12:43:26;12.63;;;9.77;;
6689;SDS011;3382;51.576;8.076;2022-11-20T12:57:01;13.60;;;9.30;;
6689;SDS011;3382;51.576;8.076;2022-11-20T13:08:26;12.30;;;9.70;;
6689;SDS011;3382;51.576;8.076;2022-11-20T13:11:00;14.47;;;10.07;;
6689;SDS011;3382;51.576;8.076;2022-11-20T13:18:38;14.23;;;10.50;;
6689;SDS011;3382;51.576;8.076;2022-11-20T13:21:14;13.77;;;10.23;;
6689;SDS011;3382;51.576;8.076;2022-11-20T13:23:41;15.77;;;11.00;;
6689;SDS011;3382;51.576;8.076;2022-11-20T13:26:16;16.03;;;11.70;;
6689;SDS011;3382;51.576;8.076;2022-11-20T13:28:48;14.30;;;10.07;;
6689;SDS011;3382;51.576;8.076;2022-11-20T13:31:44;14.00;;;10.13;;
6689;SDS011;3382;51.576;8.076;2022-11-20T13:34:12;12.50;;;10.20;;
6689;SDS011;3382;51.576;8.076;2022-11-20T13:36:51;14.40;;;10.83;;
6689;SDS011;3382;51.576;8.076;2022-11-20T13:42:20;13.53;;;10.90;;
6689;SDS011;3382;51.576;8.076;2022-11-20T13:44:55;14.30;;;10.87;;
6689;SDS011;3382;51.576;8.076;2022-11-20T13:47:27;15.10;;;11.00;;
6689;SDS011;3382;51.576;8.076;2022-11-20T13:49:54;16.20;;;11.97;;
6689;SDS011;3382;51.576;8.076;2022-11-20T13:57:49;15.70;;;11.33;;
6689;SDS011;3382;51.576;8.076;2022-11-20T14:00:18;14.17;;;10.83;;
6689;SDS011;3382;51.576;8.076;2022-11-20T14:02:53;14.73;;;10.90;;
6689;SDS011;3382;51.576;8.076;2022-11-20T14:05:46;15.10;;;10.93;;
6689;SDS011;3382;51.576;8.076;2022-11-20T14:08:46;16.10;;;11.87;;
6689;SDS011;3382;51.576;8.076;2022-11-20T14:11:17;15.63;;;11.83;;
6689;SDS011;3382;51.576;8.076;2022-11-20T14:16:21;16.57;;;11.87;;
6689;SDS011;3382;51.576;8.076;2022-11-20T14:18:48;18.43;;;11.47;;
6689;SDS011;3382;51.576;8.076;2022-11-20T14:21:26;12.90;;;8.40;;
6689;SDS011;3382;51.576;8.076;2022-11-20T14:24:06;15.13;;;10.93;;
6689;SDS011;3382;51.576;8.076;2022-11-20T14:26:35;17.30;;;10.63;;
6689;SDS011;3382;51.576;8.076;2022-11-20T14:29:03;14.40;;;9.97;;
6689;SDS011;3382;51.576;8.076;2022-11-20T14:31:29;14.70;;;10.20;;
6689;SDS011;3382;51.576;8.076;2022-11-20T14:33:55;13.13;;;9.93;;
6689;SDS011;3382;51.576;8.076;2022-11-20T14:36:22;15.40;;;9.90;;
6689;SDS011;3382;51.576;8.076;2022-11-20T14:38:50;13.67;;;10.13;;
6689;SDS011;3382;51.576;8.076;2022-11-20T14:41:21;14.50;;;9.67;;
6689;SDS011;3382;51.576;8.076;2022-11-20T14:43:53;11.17;;;9.27;;
6689;SDS011;3382;51.576;8.076;2022-11-20T14:46:23;11.87;;;9.43;;
6689;SDS011;3382;51.576;8.076;2022-11-20T14:48:51;14.43;;;9.93;;
6689;SDS011;3382;51.576;8.076;2022-11-20T14:51:35;15.40;;;9.33;;
6689;SDS011;3382;51.576;8.076;2022-11-20T14:56:37;14.77;;;9.47;;
6689;SDS011;3382;51.576;8.076;2022-11-20T14:59:03;12.90;;;9.33;;
6689;SDS011;3382;51.576;8.076;2022-11-20T15:01:30;14.80;;;9.70;;
6689;SDS011;3382;51.576;8.076;2022-11-20T15:04:01;15.30;;;10.60;;
6689;SDS011;3382;51.576;8.076;2022-11-20T15:06:31;13.40;;;9.33;;
6689;SDS011;3382;51.576;8.076;2022-11-20T15:08:57;15.53;;;10.03;;
6689;SDS011;3382;51.576;8.076;2022-11-20T15:11:27;13.23;;;10.00;;
6689;SDS011;3382;51.576;8.076;2022-11-20T15:13:59;14.87;;;10.33;;
6689;SDS011;3382;51.576;8.076;2022-11-20T15:16:29;15.03;;;10.87;;
6689;SDS011;3382;51.576;8.076;2022-11-20T15:18:55;12.40;;;9.83;;
6689;SDS011;3382;51.576;8.076;2022-11-20T15:21:21;12.40;;;9.80;;
6689;SDS011;3382;51.576;8.076;2022-11-20T15:23:47;18.67;;;12.20;;
6689;SDS011;3382;51.576;8.076;2022-11-20T15:26:14;22.90;;;14.23;;
6689;SDS011;3382;51.576;8.076;2022-11-20T15:28:46;21.67;;;14.80;;
6689;SDS011;3382;51.576;8.076;2022-11-20T15:31:13;18.10;;;12.97;;
6689;SDS011;3382;51.576;8.076;2022-11-20T15:33:40;16.30;;;11.63;;
6689;SDS011;3382;51.576;8.076;2022-11-20T15:36:06;19.60;;;8.43;;
6689;SDS011;3382;51.576;8.076;2022-11-20T15:38:32;14.47;;;10.63;;
6689;SDS011;3382;51.576;8.076;2022-11-20T15:40:57;15.37;;;11.10;;
6689;SDS011;3382;51.576;8.076;2022-11-20T15:43:26;15.77;;;10.90;;
6689;SDS011;3382;51.576;8.076;2022-11-20T15:45:55;17.43;;;11.67;;
6689;SDS011;3382;51.576;8.076;2022-11-20T15:48:29;16.83;;;11.60;;
6689;SDS011;3382;51.576;8.076;2022-11-20T15:53:39;19.53;;;11.97;;
6689;SDS011;3382;51.576;8.076;2022-11-20T15:56:06;17.07;;;11.77;;
6689;SDS011;3382;51.576;8.076;2022-11-20T15:58:37;16.30;;;11.83;;
6689;SDS011;3382;51.576;8.076;2022-11-20T16:01:03;19.37;;;13.00;;
6689;SDS011;3382;51.576;8.076;2022-11-20T16:03:29;20.03;;;14.03;;
6689;SDS011;3382;51.576;8.076;2022-11-20T16:05:55;21.63;;;13.43;;
6689;SDS011;3382;51.576;8.076;2022-11-20T16:08:21;20.93;;;14.60;;
6689;SDS011;3382;51.576;8.076;2022-11-20T16:10:46;20.87;;;13.97;;
6689;SDS011;3382;51.576;8.076;2022-11-20T16:13:16;18.73;;;14.03;;
6689;SDS011;3382;51.576;8.076;2022-11-20T16:16:03;18.87;;;13.77;;
6689;SDS011;3382;51.576;8.076;2022-11-20T16:18:31;22.87;;;16.43;;
6689;SDS011;3382;51.576;8.076;2022-11-20T16:20:57;22.30;;;16.83;;
6689;SDS011;3382;51.576;8.076;2022-11-20T16:23:23;23.77;;;15.57;;
6689;SDS011;3382;51.576;8.076;2022-11-20T16:25:50;23.30;;;15.47;;
6689;SDS011;3382;51.576;8.076;2022-11-20T16:28:15;22.57;;;14.63;;
6689;SDS011;3382;51.576;8.076;2022-11-20T16:30:41;20.17;;;14.30;;
6689;SDS011;3382;51.576;8.076;2022-11-20T16:33:11;22.27;;;15.30;;
6689;SDS011;3382;51.576;8.076;2022-11-20T16:35:38;24.30;;;16.97;;
6689;SDS011;3382;51.576;8.076;2022-11-20T16:38:04;25.03;;;16.23;;
6689;SDS011;3382;51.576;8.076;2022-11-20T16:40:29;23.27;;;16.60;;
6689;SDS011;3382;51.576;8.076;2022-11-20T16:42:55;21.93;;;15.53;;
6689;SDS011;3382;51.576;8.076;2022-11-20T16:45:22;22.33;;;15.30;;
6689;SDS011;3382;51.576;8.076;2022-11-20T16:47:47;25.30;;;16.23;;
6689;SDS011;3382;51.576;8.076;2022-11-20T16:50:13;22.87;;;14.63;;
6689;SDS011;3382;51.576;8.076;2022-11-20T16:52:39;26.33;;;16.67;;
6689;SDS011;3382;51.576;8.076;2022-11-20T16:55:05;23.73;;;15.57;;
6689;SDS011;3382;51.576;8.076;2022-11-20T16:57:31;23.50;;;16.23;;
6689;SDS011;3382;51.576;8.076;2022-11-20T17:00:00;25.43;;;16.73;;